Time;durP1;ratioP1;P1;durP2;ratioP2;P2;SDS_P1;SDS_P2;PMS_P1;PMS_P2;Temp;Humidity;BMP_temperature;BMP_pressure;BME280_temperature;BME280_humidity;BME280_pressure;Samples;Min_cycle;Max_cycle;Signal;HPM_P1;HPM_P2
2024/03/02 00:01:51;;;;;;;;;;;;;;;17.99;48.28;100659.63;5035569;28;1051;-47
2024/03/02 00:04:17;;;;;;;;;;;;;;;17.33;49.07;100656.09;5034322;28;2037;-51
2024/03/02 00:06:42;;;;;;;;;;;;;;;16.69;49.39;100652.97;5036108;28;1079;-49
2024/03/02 00:09:09;;;;;;;;;;;;;;;16.48;48.67;100652.16;5035955;28;1023;-53
2024/03/02 00:11:37;;;;;;;;;;;;;;;16.32;48.05;100654.09;5026738;28;1162;-50
2024/03/02 00:14:03;;;;;;;;;;;;;;;17.52;48.90;100646.13;5031039;28;1068;-53
2024/03/02 00:16:31;;;;;;;;;;;;;;;17.31;49.49;100650.91;5035993;28;1135;-50
2024/03/02 00:19:01;;;;;;;;;;;;;;;16.67;49.34;100661.47;5037182;28;1910;-52
2024/03/02 00:21:27;;;;;;;;;;;;;;;16.39;48.86;100643.69;5029730;28;1135;-52
2024/03/02 00:23:52;;;;;;;;;;;;;;;17.78;48.72;100635.78;5068498;28;1123;-52
2024/03/02 00:26:18;;;;;;;;;;;;;;;17.00;49.63;100633.69;5043093;28;1134;-50
2024/03/02 00:28:45;;;;;;;;;;;;;;;16.60;48.67;100638.97;5039739;28;1027;-52
2024/03/02 00:31:13;;;;;;;;;;;;;;;16.53;47.82;100638.44;5061283;28;1119;-47
2024/03/02 00:33:40;;;;;;;;;;;;;;;17.55;49.15;100623.56;5037020;28;1187;-48
2024/03/02 00:36:06;;;;;;;;;;;;;;;16.90;49.60;100609.81;5034772;28;2346;-50
2024/03/02 00:38:32;;;;;;;;;;;;;;;16.49;49.08;100607.97;5023687;28;1902;-53
2024/03/02 00:41:03;;;;;;;;;;;;;;;16.32;48.76;100605.53;5030883;28;1012;-51
2024/03/02 00:43:41;;;;;;;;;;;;;;;18.01;48.29;100611.44;5034343;28;1134;-52
2024/03/02 00:46:06;;;;;;;;;;;;;;;16.92;49.21;100615.88;5038856;28;1070;-49
2024/03/02 00:48:35;;;;;;;;;;;;;;;16.56;48.77;100615.94;5039439;28;1116;-52
2024/03/02 00:51:01;;;;;;;;;;;;;;;17.08;49.46;100620.22;5038596;28;1221;-51
2024/03/02 00:53:27;;;;;;;;;;;;;;;17.06;49.70;100616.91;5026820;28;1012;-52
2024/03/02 00:55:52;;;;;;;;;;;;;;;16.65;48.88;100606.03;5037214;28;1204;-49
2024/03/02 00:58:18;;;;;;;;;;;;;;;16.45;48.38;100604.13;5026099;28;1918;-49
2024/03/02 01:00:43;;;;;;;;;;;;;;;17.13;49.02;100604.81;5039020;28;1004;-51
2024/03/02 01:03:10;;;;;;;;;;;;;;;17.35;48.95;100601.66;5038860;28;845;-48
2024/03/02 01:05:36;;;;;;;;;;;;;;;16.73;49.03;100605.47;5025648;28;2107;-47
2024/03/02 01:08:01;;;;;;;;;;;;;;;16.46;48.65;100599.50;5032046;28;999;-48
2024/03/02 01:10:27;;;;;;;;;;;;;;;16.23;48.00;100593.47;5032964;28;1432;-48
2024/03/02 01:12:52;;;;;;;;;;;;;;;16.08;47.46;100599.78;5039004;28;1047;-50
2024/03/02 01:15:18;;;;;;;;;;;;;;;17.14;49.11;100598.19;5038813;28;1008;-49
2024/03/02 01:17:44;;;;;;;;;;;;;;;17.36;49.15;100584.06;5038981;28;1910;-51
2024/03/02 01:20:10;;;;;;;;;;;;;;;16.60;49.86;100565.66;5038275;28;1128;-47
2024/03/02 01:22:35;;;;;;;;;;;;;;;18.23;48.12;100568.88;5026829;28;1048;-51
2024/03/02 01:25:01;;;;;;;;;;;;;;;17.23;49.36;100555.31;5038738;28;996;-49
2024/03/02 01:27:27;;;;;;;;;;;;;;;16.73;49.03;100549.72;5031309;28;1012;-47
2024/03/02 01:29:52;;;;;;;;;;;;;;;16.46;48.21;100556.38;5031900;28;1096;-48
2024/03/02 01:32:18;;;;;;;;;;;;;;;16.30;47.87;100552.03;5030187;28;1106;-50
2024/03/02 01:34:43;;;;;;;;;;;;;;;17.88;48.39;100551.53;5027568;28;2226;-51
2024/03/02 01:37:09;;;;;;;;;;;;;;;16.85;49.59;100541.19;5031868;28;1058;-51
2024/03/02 01:39:35;;;;;;;;;;;;;;;16.54;48.81;100527.56;5031630;28;1969;-52
2024/03/02 01:42:01;;;;;;;;;;;;;;;16.32;47.90;100533.38;5031878;28;1066;-47
2024/03/02 01:44:26;;;;;;;;;;;;;;;17.49;49.18;100536.72;5026296;28;1036;-49
2024/03/02 01:46:52;;;;;;;;;;;;;;;16.96;49.50;100553.78;5038234;28;1179;-51
2024/03/02 01:49:18;;;;;;;;;;;;;;;16.56;48.79;100563.78;5038081;28;1111;-51
2024/03/02 01:51:44;;;;;;;;;;;;;;;17.57;49.06;100562.78;5031001;28;903;-52
2024/03/02 01:54:09;;;;;;;;;;;;;;;17.09;49.47;100557.84;5031671;28;1092;-52
2024/03/02 01:56:35;;;;;;;;;;;;;;;16.58;49.28;100542.38;5018281;28;1159;-50
2024/03/02 01:59:01;;;;;;;;;;;;;;;17.65;49.07;100511.88;5050924;28;1901;-49
2024/03/02 02:01:26;;;;;;;;;;;;;;;17.03;49.61;100498.56;5037655;28;1111;-50
2024/03/02 02:03:52;;;;;;;;;;;;;;;17.01;50.01;100496.09;5037572;28;972;-49
2024/03/02 02:06:17;;;;;;;;;;;;;;;18.04;48.18;100489.81;5024723;28;2056;-51
2024/03/02 02:08:43;;;;;;;;;;;;;;;17.02;49.38;100480.41;5037832;28;1108;-48
2024/03/02 02:11:08;;;;;;;;;;;;;;;16.80;48.56;100498.06;5031633;28;1078;-49
2024/03/02 02:13:34;;;;;;;;;;;;;;;17.87;48.51;100497.66;5049988;28;1143;-51
2024/03/02 02:16:06;;;;;;;;;;;;;;;16.92;49.29;100498.59;5030255;28;1099;-51
2024/03/02 02:18:32;;;;;;;;;;;;;;;16.71;48.52;100502.50;5037540;28;1905;-52
2024/03/02 02:20:58;;;;;;;;;;;;;;;16.85;48.81;100513.72;5024629;28;1089;-50
2024/03/02 02:23:23;;;;;;;;;;;;;;;17.45;49.11;100521.91;5037674;28;996;-51
2024/03/02 02:25:48;;;;;;;;;;;;;;;16.76;49.25;100516.22;5037734;28;1000;-49
2024/03/02 02:28:14;;;;;;;;;;;;;;;16.53;48.23;100528.66;5037110;28;901;-46
2024/03/02 02:30:39;;;;;;;;;;;;;;;16.64;48.78;100530.25;5018250;28;1162;-49
2024/03/02 02:33:05;;;;;;;;;;;;;;;18.08;48.06;100534.91;5030559;28;1016;-47
2024/03/02 02:35:30;;;;;;;;;;;;;;;17.00;49.01;100538.38;5031509;28;2004;-51
2024/03/02 02:37:56;;;;;;;;;;;;;;;16.62;48.63;100532.47;5037652;28;1965;-49
2024/03/02 02:40:22;;;;;;;;;;;;;;;16.40;48.07;100541.84;5036365;28;1020;-53
2024/03/02 02:42:47;;;;;;;;;;;;;;;16.62;48.43;100543.47;5036159;28;1398;-54
2024/03/02 02:45:14;;;;;;;;;;;;;;;18.00;47.96;100560.28;5029991;28;1082;-50
2024/03/02 02:47:40;;;;;;;;;;;;;;;16.85;49.39;100554.91;5037187;28;1003;-48
2024/03/02 02:50:09;;;;;;;;;;;;;;;17.09;49.23;100553.16;5037105;28;1113;-50
2024/03/02 02:52:36;;;;;;;;;;;;;;;17.17;49.42;100565.50;5036529;28;933;-48
2024/03/02 02:55:03;;;;;;;;;;;;;;;16.71;48.85;100569.22;5036983;28;1128;-47
2024/03/02 02:57:30;;;;;;;;;;;;;;;16.42;48.43;100569.88;5037385;28;1032;-51
2024/03/02 02:59:56;;;;;;;;;;;;;;;16.52;47.76;100574.50;5036911;28;1978;-50
2024/03/02 03:02:21;;;;;;;;;;;;;;;17.99;47.93;100569.63;5036893;28;1090;-52
2024/03/02 03:04:47;;;;;;;;;;;;;;;16.82;49.50;100572.75;5035199;28;1982;-49
2024/03/02 03:07:12;;;;;;;;;;;;;;;16.58;48.29;100578.88;5037058;28;1107;-51
2024/03/02 03:09:41;;;;;;;;;;;;;;;16.43;47.56;100579.72;5023712;28;1040;-46
2024/03/02 03:12:06;;;;;;;;;;;;;;;16.63;48.58;100567.03;5022834;28;1477;-48
2024/03/02 03:14:32;;;;;;;;;;;;;;;18.13;47.92;100567.03;5019616;28;1108;-50
2024/03/02 03:16:57;;;;;;;;;;;;;;;17.10;49.41;100560.31;5022999;28;991;-51
2024/03/02 03:19:23;;;;;;;;;;;;;;;16.61;49.21;100558.28;5036447;28;1875;-48
2024/03/02 03:21:48;;;;;;;;;;;;;;;16.44;48.45;100564.09;5034283;28;1008;-51
2024/03/02 03:24:14;;;;;;;;;;;;;;;17.18;49.24;100566.31;5024160;28;1063;-47
2024/03/02 03:26:39;;;;;;;;;;;;;;;17.50;48.94;100562.28;5035377;28;1090;-49
2024/03/02 03:29:06;;;;;;;;;;;;;;;16.77;49.04;100562.63;5033203;28;1024;-50
2024/03/02 03:31:31;;;;;;;;;;;;;;;16.58;48.04;100556.09;5036451;28;1092;-51
2024/03/02 03:33:57;;;;;;;;;;;;;;;16.46;48.14;100550.09;5036551;28;1234;-49
2024/03/02 03:36:23;;;;;;;;;;;;;;;17.65;48.38;100553.94;5030889;28;2259;-47
2024/03/02 03:38:48;;;;;;;;;;;;;;;16.69;49.46;100554.97;5023569;28;1906;-50
2024/03/02 03:41:14;;;;;;;;;;;;;;;16.41;48.40;100553.66;5023229;28;920;-50
2024/03/02 03:43:39;;;;;;;;;;;;;;;17.64;48.74;100551.47;5036423;28;1123;-52
2024/03/02 03:46:05;;;;;;;;;;;;;;;17.02;49.29;100555.41;5016921;28;1228;-49
2024/03/02 03:48:30;;;;;;;;;;;;;;;16.58;48.83;100556.91;5023750;28;1063;-48
2024/03/02 03:50:56;;;;;;;;;;;;;;;17.01;48.98;100556.53;5035857;28;1051;-50
2024/03/02 03:53:22;;;;;;;;;;;;;;;17.75;48.16;100551.13;5026512;28;911;-49
2024/03/02 03:55:49;;;;;;;;;;;;;;;16.89;49.03;100550.53;5016451;28;1116;-50
2024/03/02 03:58:16;;;;;;;;;;;;;;;16.51;48.71;100542.66;5023222;28;1980;-53
2024/03/02 04:00:42;;;;;;;;;;;;;;;17.76;48.54;100549.19;5022999;28;1127;-49
2024/03/02 04:03:07;;;;;;;;;;;;;;;17.27;49.06;100548.94;5016112;28;1056;-52
2024/03/02 04:05:33;;;;;;;;;;;;;;;16.68;49.04;100544.25;5032514;28;2088;-52
2024/03/02 04:07:58;;;;;;;;;;;;;;;16.50;48.21;100552.00;5047935;28;1168;-48
2024/03/02 04:10:24;;;;;;;;;;;;;;;16.33;47.55;100546.81;5016359;28;1462;-51
2024/03/02 04:12:50;;;;;;;;;;;;;;;16.31;46.56;100546.25;5016034;28;1075;-51
2024/03/02 04:15:16;;;;;;;;;;;;;;;17.72;48.35;100548.09;5016072;28;1079;-49
2024/03/02 04:17:41;;;;;;;;;;;;;;;16.75;49.50;100542.84;5035477;28;1460;-50
2024/03/02 04:20:07;;;;;;;;;;;;;;;16.51;48.52;100547.31;5020724;28;1917;-53
2024/03/02 04:22:33;;;;;;;;;;;;;;;16.21;48.20;100549.03;5028838;28;1131;-53
2024/03/02 04:24:58;;;;;;;;;;;;;;;17.40;48.47;100554.91;5029811;28;1124;-52
2024/03/02 04:27:24;;;;;;;;;;;;;;;17.29;48.98;100551.41;5036369;28;1110;-54
2024/03/02 04:29:49;;;;;;;;;;;;;;;16.62;48.98;100546.22;5022476;28;1441;-51
2024/03/02 04:32:15;;;;;;;;;;;;;;;16.45;48.03;100548.44;5035649;28;1096;-52
2024/03/02 04:34:40;;;;;;;;;;;;;;;16.57;48.40;100555.25;5035753;28;1242;-47
2024/03/02 04:37:06;;;;;;;;;;;;;;;18.10;47.73;100557.47;5022909;28;1087;-55
2024/03/02 04:39:31;;;;;;;;;;;;;;;17.13;49.26;100555.38;5034696;28;1906;-57
2024/03/02 04:41:58;;;;;;;;;;;;;;;16.70;48.66;100556.59;5067152;28;872;-58
2024/03/02 04:44:23;;;;;;;;;;;;;;;16.49;47.92;100561.31;5035587;28;1095;-54
2024/03/02 04:46:49;;;;;;;;;;;;;;;17.24;49.20;100557.75;5035657;28;1040;-59
2024/03/02 04:49:14;;;;;;;;;;;;;;;16.99;49.38;100557.91;5033134;28;2465;-56
2024/03/02 04:51:40;;;;;;;;;;;;;;;16.62;48.65;100553.59;5035187;28;1536;-58
2024/03/02 04:54:05;;;;;;;;;;;;;;;16.44;47.78;100539.38;5035240;28;877;-61
2024/03/02 04:58:56;;;;;;;;;;;;;;;17.27;48.60;100548.94;5034699;28;1965;-57
2024/03/02 05:01:22;;;;;;;;;;;;;;;16.99;49.23;100546.91;5035237;28;1203;-55
2024/03/02 05:03:48;;;;;;;;;;;;;;;16.55;49.03;100548.41;5024296;28;1004;-58
2024/03/02 05:06:13;;;;;;;;;;;;;;;17.41;48.87;100562.88;5035989;28;1259;-54
2024/03/02 05:08:39;;;;;;;;;;;;;;;17.26;48.90;100546.47;5039103;28;1254;-57
2024/03/02 05:13:48;;;;;;;;;;;;;;;17.64;47.74;100551.47;5028459;28;1000;-58
2024/03/02 05:16:14;;;;;;;;;;;;;;;17.16;48.72;100557.53;5038693;28;1207;-53
2024/03/02 05:18:39;;;;;;;;;;;;;;;16.78;49.53;100552.44;5038954;28;1906;-54
2024/03/02 05:21:05;;;;;;;;;;;;;;;16.55;50.10;100553.88;5036015;28;2691;-56
2024/03/02 05:23:31;;;;;;;;;;;;;;;16.39;50.42;100551.19;5030422;28;1092;-54
2024/03/02 05:25:56;;;;;;;;;;;;;;;16.21;50.73;100554.50;5034280;28;1095;-50
2024/03/02 05:28:21;;;;;;;;;;;;;;;16.07;50.91;100549.59;5038585;28;1043;-60
2024/03/02 05:30:47;;;;;;;;;;;;;;;15.98;51.13;100539.47;5038530;28;1416;-51
2024/03/02 05:33:12;;;;;;;;;;;;;;;15.90;51.40;100549.06;5038317;28;1055;-56
2024/03/02 05:35:38;;;;;;;;;;;;;;;15.68;52.04;100558.34;5038274;28;1092;-58
2024/03/02 05:38:03;;;;;;;;;;;;;;;15.63;51.82;100555.59;5037645;28;1906;-58
2024/03/02 05:40:29;;;;;;;;;;;;;;;15.50;52.38;100554.22;5025568;28;882;-56
2024/03/02 05:42:54;;;;;;;;;;;;;;;15.44;52.31;100557.22;5030296;28;1099;-57
2024/03/02 05:45:20;;;;;;;;;;;;;;;17.00;48.90;100540.28;5024987;28;1588;-57
2024/03/02 05:47:45;;;;;;;;;;;;;;;17.00;48.33;100530.16;5032174;28;1555;-62
2024/03/02 05:50:11;;;;;;;;;;;;;;;16.33;50.06;100532.28;5038109;28;2409;-62
2024/03/02 05:52:37;;;;;;;;;;;;;;;15.99;51.16;100530.97;5037851;28;1044;-64
2024/03/02 05:55:02;;;;;;;;;;;;;;;15.86;51.54;100539.72;5037078;28;1063;-62
2024/03/02 05:57:47;;;;;;;;;;;;;;;15.56;51.92;100533.13;5037794;28;1190;-60
2024/03/02 06:00:13;;;;;;;;;;;;;;;16.20;50.66;100536.41;5033763;28;1930;-61
2024/03/02 06:02:39;;;;;;;;;;;;;;;17.50;47.31;100537.53;5031892;28;1063;-63
2024/03/02 06:05:06;;;;;;;;;;;;;;;16.55;49.52;100538.25;5035699;28;1098;-62
2024/03/02 06:07:32;;;;;;;;;;;;;;;16.07;50.99;100532.31;5036925;28;1047;-63
2024/03/02 06:09:58;;;;;;;;;;;;;;;15.80;51.62;100529.88;5034474;28;1243;-60
2024/03/02 06:12:24;;;;;;;;;;;;;;;15.66;51.83;100533.13;5036914;28;1226;-58
2024/03/02 06:14:49;;;;;;;;;;;;;;;15.52;52.18;100540.22;5037136;28;1070;-57
2024/03/02 06:17:14;;;;;;;;;;;;;;;16.98;48.58;100540.59;5037269;28;1111;-58
2024/03/02 06:19:40;;;;;;;;;;;;;;;17.17;47.72;100539.97;5037428;28;2865;-60
2024/03/02 06:22:06;;;;;;;;;;;;;;;16.31;49.89;100538.03;5029055;28;1075;-59
2024/03/02 06:24:31;;;;;;;;;;;;;;;16.00;50.79;100532.59;5032519;28;1122;-59
2024/03/02 06:26:57;;;;;;;;;;;;;;;15.74;51.63;100546.28;5031223;28;1555;-58
2024/03/02 06:29:22;;;;;;;;;;;;;;;15.62;51.62;100542.16;5034395;28;993;-59
2024/03/02 06:31:48;;;;;;;;;;;;;;;15.90;51.56;100543.56;5030941;28;1246;-58
2024/03/02 06:34:13;;;;;;;;;;;;;;;17.33;47.75;100540.69;5030419;28;1369;-60
2024/03/02 06:36:40;;;;;;;;;;;;;;;16.95;48.28;100540.34;5034133;28;1299;-59
2024/03/02 06:39:05;;;;;;;;;;;;;;;16.23;50.07;100539.44;5036895;28;1979;-57
2024/03/02 06:41:31;;;;;;;;;;;;;;;15.91;51.04;100543.28;5037124;28;921;-60
2024/03/02 06:43:59;;;;;;;;;;;;;;;15.64;51.61;100543.53;5037387;28;1039;-60
2024/03/02 06:46:25;;;;;;;;;;;;;;;15.59;51.99;100549.00;5029554;28;1036;-59
2024/03/02 06:48:50;;;;;;;;;;;;;;;15.92;51.23;100538.63;5030348;28;1106;-61
2024/03/02 06:51:16;;;;;;;;;;;;;;;17.33;47.94;100538.75;5036847;28;1930;-60
2024/03/02 06:53:41;;;;;;;;;;;;;;;17.07;48.22;100538.91;5036668;28;1186;-55
2024/03/02 06:56:08;;;;;;;;;;;;;;;16.31;50.19;100543.50;5023676;28;1018;-60
2024/03/02 06:58:33;;;;;;;;;;;;;;;15.97;51.05;100541.38;5036873;28;1910;-60
2024/03/02 07:01:00;;;;;;;;;;;;;;;15.84;51.29;100541.94;5035109;28;1106;-59
2024/03/02 07:03:26;;;;;;;;;;;;;;;15.57;51.67;100540.22;5036989;28;1203;-61
2024/03/02 07:05:51;;;;;;;;;;;;;;;16.03;51.04;100545.78;5036419;28;915;-59
2024/03/02 07:08:17;;;;;;;;;;;;;;;17.43;47.40;100541.44;5036830;28;979;-60
2024/03/02 07:10:42;;;;;;;;;;;;;;;16.66;49.05;100539.06;5036979;28;1119;-59
2024/03/02 07:13:08;;;;;;;;;;;;;;;16.05;50.68;100542.75;5037402;28;1051;-61
2024/03/02 07:18:11;;;;;;;;;;;;;;;15.67;51.65;100550.38;5035988;28;1901;-62
2024/03/02 07:20:38;;;;;;;;;;;;;;;15.66;52.09;100544.06;5036494;28;2706;-61
2024/03/02 07:23:04;;;;;;;;;;;;;;;17.21;48.22;100538.28;5036953;28;1051;-60
2024/03/02 07:25:30;;;;;;;;;;;;;;;17.23;47.66;100538.81;5035935;28;1371;-60
2024/03/02 07:27:55;;;;;;;;;;;;;;;16.38;50.08;100548.72;5027150;28;1024;-59
2024/03/02 07:30:21;;;;;;;;;;;;;;;16.05;50.79;100546.31;5034016;28;1480;-60
2024/03/02 07:32:46;;;;;;;;;;;;;;;15.86;51.48;100542.47;5032404;28;1245;-62
2024/03/02 07:35:13;;;;;;;;;;;;;;;15.66;51.72;100533.13;5067562;28;1321;-62
2024/03/02 07:37:38;;;;;;;;;;;;;;;15.52;52.10;100532.81;5036466;28;1203;-62
2024/03/02 07:40:04;;;;;;;;;;;;;;;16.33;50.65;100533.09;5033344;28;1976;-63
2024/03/02 07:42:30;;;;;;;;;;;;;;;17.56;47.22;100533.66;5032684;28;1039;-63
2024/03/02 07:44:55;;;;;;;;;;;;;;;16.74;49.21;100527.47;5035323;28;1245;-62
2024/03/02 07:47:21;;;;;;;;;;;;;;;16.22;50.32;100529.53;5025910;28;1207;-61
2024/03/02 07:49:46;;;;;;;;;;;;;;;15.93;51.36;100528.50;5029001;28;2679;-60
2024/03/02 07:52:12;;;;;;;;;;;;;;;15.79;51.62;100533.66;5028327;28;951;-60
2024/03/02 07:54:37;;;;;;;;;;;;;;;15.59;52.17;100529.81;5034882;28;1436;-60
2024/03/02 07:57:03;;;;;;;;;;;;;;;16.80;49.51;100532.94;5023452;28;1187;-61
2024/03/02 07:59:28;;;;;;;;;;;;;;;17.48;47.34;100528.78;5035977;28;1901;-61
2024/03/02 08:01:55;;;;;;;;;;;;;;;16.46;49.87;100539.09;5036028;28;1122;-62
2024/03/02 08:04:20;;;;;;;;;;;;;;;16.04;51.16;100535.59;5036095;28;1048;-61
2024/03/02 08:06:47;;;;;;;;;;;;;;;15.74;51.87;100531.75;5034255;28;861;-61
2024/03/02 08:09:12;;;;;;;;;;;;;;;15.66;52.00;100538.59;5052654;28;1080;-61
2024/03/02 08:11:38;;;;;;;;;;;;;;;16.60;49.73;100524.50;5036046;28;1103;-60
2024/03/02 08:14:04;;;;;;;;;;;;;;;17.63;47.08;100528.66;5034917;28;1131;-60
2024/03/02 08:16:29;;;;;;;;;;;;;;;16.51;49.89;100537.16;5035359;28;1051;-61
2024/03/02 08:18:57;;;;;;;;;;;;;;;16.17;50.64;100535.06;5028753;28;1906;-56
2024/03/02 08:21:23;;;;;;;;;;;;;;;15.91;51.48;100540.56;5030844;28;1092;-59
2024/03/02 08:23:49;;;;;;;;;;;;;;;15.79;51.49;100531.78;5036380;28;1027;-59
2024/03/02 08:26:14;;;;;;;;;;;;;;;16.17;50.95;100539.69;5035483;28;1101;-60
2024/03/02 08:28:43;;;;;;;;;;;;;;;17.51;47.67;100541.94;5034540;28;1079;-59
2024/03/02 08:31:08;;;;;;;;;;;;;;;16.68;49.54;100542.34;5035568;28;1119;-60
2024/03/02 08:33:34;;;;;;;;;;;;;;;16.21;50.46;100538.88;5036160;28;1036;-60
2024/03/02 08:36:00;;;;;;;;;;;;;;;15.91;51.44;100546.03;5035577;28;1119;-58
2024/03/02 08:38:25;;;;;;;;;;;;;;;15.68;51.97;100547.38;5034931;28;1898;-59
2024/03/02 08:40:51;;;;;;;;;;;;;;;15.58;52.27;100550.09;5036965;28;1253;-59
2024/03/02 08:43:17;;;;;;;;;;;;;;;16.45;50.36;100549.25;5037680;28;1285;-59
2024/03/02 08:45:42;;;;;;;;;;;;;;;17.64;47.15;100545.97;5035809;28;1179;-58
2024/03/02 08:48:10;;;;;;;;;;;;;;;16.87;48.91;100553.53;5037907;28;1207;-60
2024/03/02 08:50:36;;;;;;;;;;;;;;;16.31;50.54;100565.47;5035649;28;1937;-59
2024/03/02 08:53:02;;;;;;;;;;;;;;;15.98;51.12;100562.22;5037944;28;1170;-60
2024/03/02 08:55:27;;;;;;;;;;;;;;;15.82;51.75;100558.66;5037775;28;1215;-59
2024/03/02 08:57:53;;;;;;;;;;;;;;;15.56;52.08;100563.25;5039195;28;1261;-57
2024/03/02 09:00:18;;;;;;;;;;;;;;;16.31;50.76;100565.47;5034606;28;1918;-55
2024/03/02 09:02:44;;;;;;;;;;;;;;;17.55;47.50;100570.50;5036526;28;1488;-57
2024/03/02 09:05:10;;;;;;;;;;;;;;;16.94;48.69;100566.97;5037123;28;1304;-60
2024/03/02 09:07:35;;;;;;;;;;;;;;;16.42;50.16;100569.88;5037513;28;918;-62
2024/03/02 09:10:01;;;;;;;;;;;;;;;16.03;50.96;100569.63;5038982;28;1059;-59
2024/03/02 09:12:26;;;;;;;;;;;;;;;15.74;52.04;100568.22;5039055;28;1095;-55
2024/03/02 09:14:52;;;;;;;;;;;;;;;15.68;51.92;100563.84;5025696;28;1094;-57
2024/03/02 09:17:17;;;;;;;;;;;;;;;15.53;52.45;100558.34;5039108;28;1004;-53
2024/03/02 09:19:43;;;;;;;;;;;;;;;16.95;48.87;100551.31;5033563;28;2750;-56
2024/03/02 09:22:09;;;;;;;;;;;;;;;17.53;47.48;100553.47;5030139;28;1005;-55
2024/03/02 09:24:35;;;;;;;;;;;;;;;16.55;49.86;100548.41;5031867;28;1146;-60
2024/03/02 09:27:00;;;;;;;;;;;;;;;16.10;50.85;100550.94;5026655;28;1059;-52
2024/03/02 09:29:26;;;;;;;;;;;;;;;15.93;51.33;100553.97;5038745;28;1075;-52
2024/03/02 09:31:51;;;;;;;;;;;;;;;15.72;51.98;100547.66;5038071;28;936;-57
2024/03/02 09:34:17;;;;;;;;;;;;;;;15.55;52.33;100556.13;5037505;28;1100;-56
2024/03/02 09:36:42;;;;;;;;;;;;;;;16.43;50.44;100546.78;5034229;28;1151;-56
2024/03/02 09:39:09;;;;;;;;;;;;;;;17.63;47.19;100536.91;5038686;28;1917;-57
2024/03/02 09:41:35;;;;;;;;;;;;;;;16.72;49.61;100537.13;5024915;28;1138;-59
2024/03/02 09:44:01;;;;;;;;;;;;;;;16.22;50.96;100535.03;5036953;28;907;-57
2024/03/02 09:46:26;;;;;;;;;;;;;;;15.98;51.58;100540.28;5037206;28;1162;-57
2024/03/02 09:48:51;;;;;;;;;;;;;;;15.81;51.67;100537.81;5038596;28;1040;-57
2024/03/02 09:51:19;;;;;;;;;;;;;;;15.60;52.23;100531.47;5037210;28;2764;-56
2024/03/02 09:53:44;;;;;;;;;;;;;;;15.62;52.18;100533.94;5038175;28;1218;-58
2024/03/02 09:56:10;;;;;;;;;;;;;;;16.86;49.23;100535.41;5031564;28;1423;-55
2024/03/02 09:58:35;;;;;;;;;;;;;;;17.47;47.48;100524.38;5027487;28;1906;-58
2024/03/02 10:01:01;;;;;;;;;;;;;;;16.49;50.02;100527.56;5037906;28;1032;-57
2024/03/02 10:03:27;;;;;;;;;;;;;;;16.08;51.07;100529.28;5037101;28;1060;-58
2024/03/02 10:05:52;;;;;;;;;;;;;;;15.85;51.96;100527.09;5036742;28;1108;-58
2024/03/02 10:08:18;;;;;;;;;;;;;;;15.73;52.03;100525.44;5037814;28;1231;-62
2024/03/02 10:10:43;;;;;;;;;;;;;;;15.60;52.36;100527.91;5037177;28;1043;-57
2024/03/02 10:13:09;;;;;;;;;;;;;;;16.64;49.85;100529.44;5033608;28;1294;-57
2024/03/02 10:15:42;;;;;;;;;;;;;;;17.70;47.45;100522.84;5038009;28;992;-54
2024/03/02 10:18:08;;;;;;;;;;;;;;;16.67;49.66;100521.47;5037435;28;1962;-59
2024/03/02 10:20:34;;;;;;;;;;;;;;;16.15;51.07;100522.72;5035751;28;2549;-59
2024/03/02 10:23:09;;;;;;;;;;;;;;;15.91;51.60;100515.88;5037433;28;1145;-57
2024/03/02 10:25:34;;;;;;;;;;;;;;;15.73;51.92;100511.72;5037345;28;1418;-59
2024/03/02 10:28:00;;;;;;;;;;;;;;;15.66;52.35;100510.38;5033845;28;1247;-59
2024/03/02 10:30:26;;;;;;;;;;;;;;;16.68;49.75;100508.56;5035443;28;1191;-59
2024/03/02 10:32:53;;;;;;;;;;;;;;;17.73;47.32;100501.06;5037774;28;1103;-58
2024/03/02 10:35:18;;;;;;;;;;;;;;;16.74;49.44;100497.25;5035143;28;1071;-58
2024/03/02 10:37:43;;;;;;;;;;;;;;;16.22;51.06;100495.81;5036184;28;1128;-58
2024/03/02 10:40:10;;;;;;;;;;;;;;;16.05;51.22;100490.63;5036520;28;1902;-59
2024/03/02 10:42:36;;;;;;;;;;;;;;;15.86;51.84;100488.44;5037008;28;1003;-59
2024/03/02 10:45:02;;;;;;;;;;;;;;;15.68;52.21;100487.06;5036080;28;1039;-58
2024/03/02 10:47:28;;;;;;;;;;;;;;;15.54;52.33;100491.44;5037420;28;1230;-58
2024/03/02 10:49:53;;;;;;;;;;;;;;;15.64;52.40;100480.50;5060287;28;2425;-59
2024/03/02 10:52:19;;;;;;;;;;;;;;;17.16;48.70;100481.41;5065467;28;1078;-59
2024/03/02 10:54:45;;;;;;;;;;;;;;;17.31;47.98;100480.50;5027196;28;1206;-57
2024/03/02 10:57:10;;;;;;;;;;;;;;;16.46;50.16;100478.72;5037066;28;1051;-59
2024/03/02 10:59:38;;;;;;;;;;;;;;;16.07;51.35;100469.22;5035462;28;1965;-58
2024/03/02 11:02:04;;;;;;;;;;;;;;;15.84;51.83;100478.88;5036620;28;1127;-55
2024/03/02 11:04:31;;;;;;;;;;;;;;;15.65;52.25;100467.59;5036686;28;1040;-56
2024/03/02 11:07:22;;;;;;;;;;;;;;;15.86;52.14;100476.66;5036389;28;1071;-58
2024/03/02 11:09:54;;;;;;;;;;;;;;;17.53;47.65;100470.97;5033786;28;1363;-57
2024/03/02 11:12:20;;;;;;;;;;;;;;;16.95;49.07;100474.41;5036782;28;1017;-59
2024/03/02 11:14:45;;;;;;;;;;;;;;;16.26;50.65;100469.47;5068267;28;1119;-60
2024/03/02 11:17:11;;;;;;;;;;;;;;;15.95;51.54;100480.50;5036825;28;1119;-59
2024/03/02 11:19:38;;;;;;;;;;;;;;;15.72;52.37;100479.13;5036094;28;2515;-58
2024/03/02 11:22:03;;;;;;;;;;;;;;;15.69;52.14;100469.50;5036460;28;1130;-57
2024/03/02 11:24:35;;;;;;;;;;;;;;;16.60;50.26;100475.09;5034225;28;908;-57
2024/03/02 11:27:01;;;;;;;;;;;;;;;17.77;47.07;100474.63;5039195;28;1111;-56
2024/03/02 11:29:36;;;;;;;;;;;;;;;16.75;49.41;100470.66;5046155;28;1151;-58
2024/03/02 11:32:02;;;;;;;;;;;;;;;16.22;51.01;100468.38;5035865;28;1051;-57
2024/03/02 11:34:31;;;;;;;;;;;;;;;15.95;51.58;100464.06;5036643;28;1115;-55
2024/03/02 11:36:57;;;;;;;;;;;;;;;15.73;52.04;100469.81;5036453;28;1102;-56
2024/03/02 11:39:22;;;;;;;;;;;;;;;15.77;52.08;100462.66;5036371;28;1960;-56
2024/03/02 11:41:48;;;;;;;;;;;;;;;17.26;48.50;100472.28;5035018;28;1115;-56
2024/03/02 11:44:14;;;;;;;;;;;;;;;17.36;47.94;100458.50;5035040;28;1274;-58
2024/03/02 11:46:40;;;;;;;;;;;;;;;16.57;49.92;100458.38;5032888;28;1226;-57
2024/03/02 11:49:05;;;;;;;;;;;;;;;16.17;51.05;100454.66;5031624;28;2439;-59
2024/03/02 11:51:32;;;;;;;;;;;;;;;16.01;51.35;100462.94;5061340;28;1199;-61
2024/03/02 11:53:58;;;;;;;;;;;;;;;15.78;52.15;100460.75;5032471;28;1171;-60
2024/03/02 11:56:24;;;;;;;;;;;;;;;16.00;51.84;100455.78;5057821;28;1450;-59
2024/03/02 11:58:51;;;;;;;;;;;;;;;17.44;47.98;100455.09;5032707;28;1969;-59
2024/03/02 12:01:16;;;;;;;;;;;;;;;16.90;49.25;100447.78;5017239;28;1040;-60
2024/03/02 12:03:42;;;;;;;;;;;;;;;16.27;50.95;100446.44;5034292;28;1210;-59
2024/03/02 12:06:07;;;;;;;;;;;;;;;16.04;51.28;100440.44;5031972;28;1343;-59
2024/03/02 12:08:33;;;;;;;;;;;;;;;15.90;51.67;100444.84;5034069;28;1284;-58
2024/03/02 12:10:59;;;;;;;;;;;;;;;15.65;52.24;100449.22;5034723;28;1016;-59
2024/03/02 12:13:24;;;;;;;;;;;;;;;16.45;50.81;100446.88;5036014;28;1234;-57
2024/03/02 12:15:52;;;;;;;;;;;;;;;17.66;47.53;100448.34;5033631;28;1438;-57
2024/03/02 12:18:18;;;;;;;;;;;;;;;16.74;49.56;100431.38;5034453;28;1995;-54
2024/03/02 12:20:44;;;;;;;;;;;;;;;16.23;51.08;100442.59;5038745;28;2585;-59
2024/03/02 12:23:09;;;;;;;;;;;;;;;15.99;51.53;100445.09;5038401;28;1297;-59
2024/03/02 12:25:35;;;;;;;;;;;;;;;15.79;52.12;100433.06;5035137;28;1144;-58
2024/03/02 12:28:01;;;;;;;;;;;;;;;15.67;52.38;100436.09;5039253;28;1020;-62
2024/03/02 12:30:27;;;;;;;;;;;;;;;15.83;52.10;100438.84;5038678;28;1268;-58
2024/03/02 12:32:52;;;;;;;;;;;;;;;17.31;48.37;100442.03;5036220;28;1175;-63
2024/03/02 12:35:18;;;;;;;;;;;;;;;17.28;48.38;100443.41;5032603;28;1052;-58
2024/03/02 12:37:43;;;;;;;;;;;;;;;16.43;50.32;100433.47;5037149;28;1172;-59
2024/03/02 12:40:10;;;;;;;;;;;;;;;16.19;51.05;100430.53;5037626;28;1917;-58
2024/03/02 12:42:35;;;;;;;;;;;;;;;15.99;51.50;100436.88;5035182;28;1282;-58
2024/03/02 12:45:01;;;;;;;;;;;;;;;15.76;52.07;100441.03;5036097;28;1237;-60
2024/03/02 12:47:26;;;;;;;;;;;;;;;17.16;48.83;100440.22;5038708;28;1274;-59
2024/03/02 12:49:52;;;;;;;;;;;;;;;17.53;47.57;100444.34;5069256;28;2531;-59